Terminal Aerodrome Forecast
Issued by NWS Grand Forks, ND

Home | Current Version | Previous Version | Graphics & Text | Print | Product List | Glossary On
Versions: 1 2 3 4 5 6 7 8 9 10 11 12 13 14 15 16 17 18 19 20 21 22 23 24 25 26 27
000
FTUS43 KFGF 252043 AAE
TAFGFK
TAF AMD
KGFK 252043Z 2521/2618 36010KT 4SM SHRA BKN030
      TEMPO 2521/2523 2SM +SHRA BKN025
     FM252300 10012KT P6SM -SHRA VCTS BKN040CB
     FM260200 16009KT P6SM -SHRA BKN025
     FM260300 16006KT P6SM BKN025
     FM260800 22008KT P6SM BKN020=

USA.gov is the U.S. government's official web portal to all federal, state and local government web resources and services.